Annandale, NJ

8:25 AM EDT on October 23, 2014 (GMT -0400)
Regional Road | Change Station
CLOSE
Current Station
Personal Weather Station
Location: Annandale, NJ
Elevation: 387 ft
Nearby Weather Stations

Elev 387 ft 40.63 °N, 74.89 °W | Updated 4 minutes ago

Overcast
Overcast
50.6 °F
Feels Like 50.6 °F
N
2.0
Wind Variable Wind from NNW
Gusts 2.0 mph

Today
High -- | Low -- °F
--% Chance of Precip.
Yesterday
High -- | Low -- °F
Precip. -- in
7:19 AM 6:07 PM
Waning Crescent, 0% visible
Pressure 29.73 in
Visibility 10.0 miles
Clouds Mostly Cloudy 2200 ft
Overcast 4100 ft
Dew Point 48 °F
Humidity 90%
Rainfall 0.07 in
Snow Depth Not available.
UV 0 out of 12
Pollen .10 out of 12
Air Quality Not available.
Flu Activity Sporadic
METAR KSMQ 231153Z AUTO 34009KT 300V010 10SM BKN022 OVC041 12/07 A2973 RMK AO2 RAE03 SLP067 P0000 60003 70047 T01170072 10122 20111 51001

More Conditions Fewer Conditions

Pressure 29.73 in
Visibility 10.0 miles
Clouds Mostly Cloudy 2200 ft
Overcast 4100 ft
Dew Point 48 °F
Humidity 90%
Rainfall 0.07 in
Snow Depth Not available.
UV 0 out of 12
Pollen .10 out of 12
Air Quality Not available.
Flu Activity Sporadic
METAR KSMQ 231153Z AUTO 34009KT 300V010 10SM BKN022 OVC041 12/07 A2973 RMK AO2 RAE03 SLP067 P0000 60003 70047 T01170072 10122 20111 51001

More Conditions Fewer Conditions

10-Day Weather Forecast

Almanac

Astronomy

Oct. 23, 2014 Rise Set
Actual Time 7:19 AM EDT 6:07 PM EDT
Civil Twilight 6:51 AM EDT 6:35 PM EDT
Nautical Twilight 6:19 AM EDT 7:07 PM EDT
Astronomical Twilight 5:47 AM EDT 7:39 PM EDT
Moon 6:56 AM EDT 6:07 PM EDT
Length of Visible Light 11h 44m
Length of Day
10h 48m
Tomorrow will be 2m 31s shorter.
Waning Crescent, 0% of the Moon is Illuminated
Today
Waning Crescent
Oct 23
New
Oct 30
First Quarter
Nov 6
Full
Nov 14
Last Quarter

Today's Extremes

State Highs State Lows

Community

WunderPhotos

Upload Photos

1,764,211 photos uploaded!

WunderBlogs® & News

Nearby

Snow Depth

Station Depth Elevation
No new snow has been reported.

Earthquake Activity

City Distance Mag. Time & Date
No recent earthquake activity has been reported nearby.
Minimum magnitude displayed is 2.5.

Coastal Water Temperatures

Place Temperature
No Stations Reporting

Nearby Weather Stations